Time;durP1;ratioP1;P1;durP2;ratioP2;P2;SDS_P1;SDS_P2;PMS_P1;PMS_P2;Temp;Humidity;BMP_temperature;BMP_pressure;BME280_temperature;BME280_humidity;BME280_pressure;Samples;Min_cycle;Max_cycle;Signal;HPM_P1;HPM_P2
2023/07/05 00:00:08;;;;;;;24.00;16.05;;;21.60;84.60;;;;;;4975688;28;20212;-75
2023/07/05 00:02:57;;;;;;;25.40;16.00;;;21.70;85.10;;;;;;4987821;28;20706;-75
2023/07/05 00:05:46;;;;;;;21.45;15.93;;;21.70;85.40;;;;;;4975795;28;20698;-75
2023/07/05 00:08:36;;;;;;;22.02;16.35;;;21.60;86.00;;;;;;4983645;28;20249;-75
2023/07/05 00:11:25;;;;;;;23.70;16.98;;;21.60;86.30;;;;;;4968632;28;20297;-76
2023/07/05 00:14:15;;;;;;;24.60;15.98;;;21.50;86.30;;;;;;4994891;28;20224;-75
2023/07/05 00:17:05;;;;;;;24.02;16.42;;;21.40;86.70;;;;;;4978239;28;20302;-75
2023/07/05 00:19:55;;;;;;;23.65;16.33;;;21.40;86.60;;;;;;4987002;28;20227;-73
2023/07/05 00:22:43;;;;;;;26.42;16.48;;;21.40;86.80;;;;;;4986752;28;20589;-74
2023/07/05 00:25:32;;;;;;;21.77;16.55;;;21.40;87.00;;;;;;4981473;28;20223;-75
2023/07/05 00:28:21;;;;;;;23.90;16.92;;;21.40;87.30;;;;;;4991697;28;20745;-76
2023/07/05 00:31:10;;;;;;;22.05;15.93;;;21.30;87.10;;;;;;4980954;28;20250;-75
2023/07/05 00:34:02;;;;;;;24.10;17.27;;;21.30;88.50;;;;;;4979922;28;20760;-74
2023/07/05 00:36:51;;;;;;;22.27;15.90;;;21.30;88.70;;;;;;4971480;28;20289;-74
2023/07/05 00:39:41;;;;;;;19.95;16.63;;;21.20;88.30;;;;;;4971201;28;20229;-75
2023/07/05 00:42:30;;;;;;;21.33;16.25;;;21.20;88.50;;;;;;4977036;28;20231;-74
2023/07/05 00:45:46;;;;;;;22.48;15.68;;;21.20;89.60;;;;;;4978972;28;20237;-73
2023/07/05 00:48:38;;;;;;;22.35;17.10;;;21.20;89.60;;;;;;4977830;28;20222;-75
2023/07/05 00:51:31;;;;;;;23.10;16.23;;;21.10;89.40;;;;;;4979541;28;20297;-78
2023/07/05 00:54:26;;;;;;;26.77;17.30;;;21.10;89.90;;;;;;4984556;28;20231;-76
2023/07/05 00:57:19;;;;;;;24.13;15.75;;;21.10;90.10;;;;;;4992420;28;20227;-76
2023/07/05 01:00:13;;;;;;;22.00;15.80;;;21.00;89.80;;;;;;4969540;28;20756;-75
2023/07/05 01:03:08;;;;;;;24.02;16.50;;;21.00;90.10;;;;;;4974968;28;20305;-75
2023/07/05 01:06:00;;;;;;;24.13;15.98;;;21.00;90.00;;;;;;4980503;28;20393;-74
2023/07/05 01:08:51;;;;;;;22.85;15.90;;;20.90;90.50;;;;;;4976105;28;20231;-74
2023/07/05 01:11:48;;;;;;;24.30;16.58;;;20.90;90.40;;;;;;4984134;28;20234;-74
2023/07/05 01:14:41;;;;;;;26.75;16.67;;;20.90;90.30;;;;;;4979393;28;20276;-74
2023/07/05 01:17:40;;;;;;;23.17;16.65;;;20.80;90.30;;;;;;4967852;28;20610;-74
2023/07/05 01:20:41;;;;;;;21.42;16.42;;;20.80;89.70;;;;;;4977461;28;20687;-73
2023/07/05 01:24:00;;;;;;;23.88;16.38;;;20.80;90.40;;;;;;4988537;28;20228;-73
2023/07/05 01:27:23;;;;;;;23.98;15.82;;;20.80;90.50;;;;;;4976634;28;20230;-71
2023/07/05 01:30:45;;;;;;;26.05;16.42;;;20.80;90.70;;;;;;4978664;28;20227;-73
2023/07/05 01:33:42;;;;;;;26.88;16.65;;;20.80;90.60;;;;;;4970258;28;20247;-72
2023/07/05 01:36:32;;;;;;;23.10;16.63;;;20.80;90.90;;;;;;4989874;28;20273;-75
2023/07/05 01:39:21;;;;;;;23.85;16.13;;;20.70;90.50;;;;;;4981986;28;20308;-75
2023/07/05 01:42:11;;;;;;;23.38;16.33;;;20.70;90.30;;;;;;4997242;28;20850;-73
2023/07/05 01:45:02;;;;;;;22.75;16.40;;;20.60;90.80;;;;;;4984963;28;20860;-75
2023/07/05 01:47:57;;;;;;;23.17;15.98;;;20.70;90.70;;;;;;4996021;28;20329;-74
2023/07/05 01:50:53;;;;;;;23.30;16.15;;;20.70;90.60;;;;;;4995380;28;20290;-76
2023/07/05 01:53:51;;;;;;;24.80;15.25;;;20.60;88.70;;;;;;4976054;28;20785;-77
2023/07/05 01:56:46;;;;;;;21.67;15.30;;;20.60;88.90;;;;;;4992958;28;20234;-78
2023/07/05 01:59:39;;;;;;;23.95;15.07;;;20.60;89.70;;;;;;4974116;28;20228;-78
2023/07/05 02:02:33;;;;;;;25.58;15.60;;;20.60;89.20;;;;;;4984703;28;20281;-76
2023/07/05 02:05:22;;;;;;;21.52;15.05;;;20.70;89.20;;;;;;4982006;28;20225;-76
2023/07/05 02:08:17;;;;;;;22.02;14.00;;;20.60;89.10;;;;;;4980630;28;20549;-77
2023/07/05 02:11:06;;;;;;;22.55;14.13;;;20.70;89.00;;;;;;4973700;28;20219;-77
2023/07/05 02:13:54;;;;;;;22.52;14.93;;;20.60;88.80;;;;;;4968013;28;20223;-77
2023/07/05 02:16:44;;;;;;;20.27;13.85;;;20.70;89.00;;;;;;4973274;28;20229;-74
2023/07/05 02:19:33;;;;;;;18.38;13.13;;;20.60;88.50;;;;;;4983630;28;20746;-74
2023/07/05 02:22:24;;;;;;;19.85;14.15;;;20.60;89.40;;;;;;4967490;28;20230;-75
2023/07/05 02:25:16;;;;;;;22.15;14.15;;;20.60;89.20;;;;;;4973113;28;20234;-76
2023/07/05 02:28:07;;;;;;;20.33;13.50;;;20.50;89.50;;;;;;4975060;28;20754;-77
2023/07/05 02:30:56;;;;;;;21.38;14.45;;;20.50;89.90;;;;;;4978177;28;20231;-75
2023/07/05 02:33:45;;;;;;;19.00;14.15;;;20.30;90.60;;;;;;4983066;28;20862;-74
2023/07/05 02:36:36;;;;;;;23.15;14.60;;;20.30;90.60;;;;;;4965779;28;20372;-75
2023/07/05 02:39:25;;;;;;;22.55;14.50;;;20.20;90.90;;;;;;4979468;28;20601;-74
2023/07/05 02:42:18;;;;;;;24.35;14.93;;;20.10;91.50;;;;;;4993916;28;20231;-74
2023/07/05 02:45:07;;;;;;;23.58;15.00;;;20.30;91.50;;;;;;4989714;28;20237;-75
2023/07/05 02:47:57;;;;;;;24.85;15.40;;;20.30;91.70;;;;;;4981356;28;20783;-76
2023/07/05 02:50:46;;;;;;;24.23;15.65;;;20.30;91.70;;;;;;4977764;28;20397;-77
2023/07/05 02:53:35;;;;;;;22.50;15.25;;;20.10;92.10;;;;;;4973861;28;20735;-73
2023/07/05 02:56:25;;;;;;;23.15;16.42;;;19.70;92.70;;;;;;4970030;28;20226;-73
2023/07/05 02:59:16;;;;;;;27.13;16.17;;;19.80;92.80;;;;;;4980000;28;20235;-74
2023/07/05 03:02:05;;;;;;;23.45;16.48;;;19.80;93.40;;;;;;4978054;28;20214;-74
2023/07/05 03:04:55;;;;;;;25.45;16.13;;;19.90;93.60;;;;;;4984913;28;20232;-72
2023/07/05 03:07:45;;;;;;;24.90;16.02;;;20.00;93.40;;;;;;4974133;28;20250;-71
2023/07/05 03:10:38;;;;;;;22.25;16.33;;;19.90;93.50;;;;;;4988232;28;20672;-72
2023/07/05 03:13:29;;;;;;;29.92;17.77;;;20.00;93.70;;;;;;4977867;28;20299;-72
2023/07/05 03:16:19;;;;;;;28.58;17.88;;;20.00;94.10;;;;;;4976042;28;20222;-71
2023/07/05 03:19:08;;;;;;;26.92;18.30;;;20.10;94.50;;;;;;4976033;28;20237;-72
2023/07/05 03:21:57;;;;;;;28.63;18.20;;;20.10;94.40;;;;;;4983825;28;20222;-71
2023/07/05 03:24:46;;;;;;;25.90;18.40;;;20.00;94.40;;;;;;4973467;28;20223;-72
2023/07/05 03:27:35;;;;;;;31.55;18.00;;;19.80;94.30;;;;;;4989983;28;20231;-71
2023/07/05 03:30:25;;;;;;;25.48;19.05;;;20.00;94.60;;;;;;4988264;28;20808;-71
2023/07/05 03:33:16;;;;;;;25.35;19.35;;;20.20;94.80;;;;;;4987750;28;20576;-72
2023/07/05 03:36:07;;;;;;;29.15;19.60;;;20.00;94.70;;;;;;4978213;28;20520;-72
2023/07/05 03:38:56;;;;;;;29.90;19.90;;;20.00;95.30;;;;;;4982092;28;20233;-72
2023/07/05 03:41:46;;;;;;;28.50;19.67;;;20.20;95.40;;;;;;4985179;28;20309;-72
2023/07/05 03:44:35;;;;;;;26.42;18.88;;;20.10;95.30;;;;;;4981967;28;22160;-73
2023/07/05 03:47:24;;;;;;;26.85;18.27;;;20.30;95.00;;;;;;4970294;28;20230;-74
2023/07/05 03:50:14;;;;;;;23.25;17.65;;;20.20;94.80;;;;;;4988463;28;20352;-73
2023/07/05 03:53:03;;;;;;;24.65;18.42;;;20.00;94.30;;;;;;4981155;28;20237;-74
2023/07/05 03:55:52;;;;;;;28.55;18.10;;;20.00;94.50;;;;;;4981774;28;20555;-74
2023/07/05 03:58:42;;;;;;;29.10;18.42;;;20.00;94.50;;;;;;4969270;28;20326;-73
2023/07/05 04:01:31;;;;;;;26.50;17.63;;;20.10;94.30;;;;;;4966389;28;20818;-77
2023/07/05 04:04:20;;;;;;;25.02;17.48;;;20.10;94.50;;;;;;4977373;28;20769;-77
2023/07/05 04:07:10;;;;;;;24.33;17.38;;;20.20;94.30;;;;;;4992391;28;20227;-77
2023/07/05 04:09:59;;;;;;;27.55;16.58;;;20.40;94.10;;;;;;4977659;28;20226;-77
2023/07/05 04:12:51;;;;;;;26.23;15.80;;;20.30;93.50;;;;;;4977330;28;20763;-77
2023/07/05 04:15:40;;;;;;;24.33;15.40;;;20.50;93.60;;;;;;4974233;28;20874;-78
2023/07/05 04:18:29;;;;;;;20.25;14.82;;;20.40;93.20;;;;;;4973080;28;20653;-77
2023/07/05 04:21:19;;;;;;;20.83;15.15;;;20.40;93.20;;;;;;4980872;28;20227;-78
2023/07/05 04:24:09;;;;;;;19.92;14.05;;;20.50;93.00;;;;;;4980260;28;20226;-73
2023/07/05 04:26:58;;;;;;;21.65;14.35;;;20.60;93.00;;;;;;4990863;28;20223;-74
2023/07/05 04:29:46;;;;;;;17.75;13.90;;;20.70;93.50;;;;;;4982897;28;20854;-74
2023/07/05 04:32:35;;;;;;;19.00;14.30;;;20.80;92.80;;;;;;4968342;28;20224;-74
2023/07/05 04:35:25;;;;;;;16.88;12.85;;;20.90;92.60;;;;;;4986503;28;20234;-74
2023/07/05 04:38:14;;;;;;;20.58;13.43;;;20.80;92.50;;;;;;4997339;28;20238;-73
2023/07/05 04:41:04;;;;;;;21.25;13.88;;;20.70;92.30;;;;;;4981292;28;20868;-75
2023/07/05 04:43:53;;;;;;;22.33;13.98;;;20.70;92.70;;;;;;4982019;28;20231;-76
2023/07/05 04:46:42;;;;;;;25.45;13.70;;;20.70;92.70;;;;;;4977037;28;20302;-74
2023/07/05 04:49:31;;;;;;;19.15;13.75;;;20.80;93.30;;;;;;4976279;28;20224;-71
2023/07/05 04:52:20;;;;;;;21.23;14.40;;;21.00;93.50;;;;;;4997106;28;20658;-73
2023/07/05 04:55:09;;;;;;;22.73;14.32;;;20.90;92.80;;;;;;4976885;28;20233;-76
2023/07/05 04:58:03;;;;;;;19.35;13.63;;;20.80;92.70;;;;;;4978788;28;20238;-74
2023/07/05 05:00:53;;;;;;;17.58;13.10;;;20.70;93.00;;;;;;4983832;28;20234;-73
2023/07/05 05:03:42;;;;;;;16.90;11.70;;;21.00;93.00;;;;;;4982423;28;20770;-73
2023/07/05 05:06:32;;;;;;;18.45;13.30;;;21.10;92.10;;;;;;4971013;28;20227;-73
2023/07/05 05:09:21;;;;;;;18.48;12.65;;;21.30;92.10;;;;;;4982246;28;20226;-73
2023/07/05 05:12:10;;;;;;;19.05;12.30;;;21.10;92.40;;;;;;4981078;28;20706;-74
2023/07/05 05:15:02;;;;;;;19.55;11.02;;;21.50;92.00;;;;;;4992448;28;20350;-74
2023/07/05 05:17:50;;;;;;;17.00;11.85;;;21.60;91.30;;;;;;4977446;28;20230;-74
2023/07/05 05:20:40;;;;;;;20.13;12.35;;;21.90;92.20;;;;;;4976850;28;20552;-73
2023/07/05 05:23:29;;;;;;;26.80;12.85;;;22.10;91.90;;;;;;4986171;28;20355;-75
2023/07/05 05:26:18;;;;;;;27.02;14.15;;;22.20;92.00;;;;;;4988889;28;21080;-73
2023/07/05 05:29:07;;;;;;;26.15;14.65;;;22.20;91.60;;;;;;4993871;28;20222;-75
2023/07/05 05:31:57;;;;;;;26.23;14.18;;;22.20;91.40;;;;;;4981639;28;20222;-75
2023/07/05 05:34:46;;;;;;;26.65;14.27;;;22.20;91.90;;;;;;4982611;28;20230;-74
2023/07/05 05:37:35;;;;;;;22.80;12.10;;;22.40;91.10;;;;;;4982610;28;20234;-75
2023/07/05 05:40:24;;;;;;;14.18;10.70;;;22.50;91.20;;;;;;4981928;28;20257;-75
2023/07/05 05:43:14;;;;;;;18.58;11.35;;;22.60;90.30;;;;;;4983369;28;20679;-73
2023/07/05 05:46:03;;;;;;;16.83;10.40;;;22.70;89.80;;;;;;4976555;28;20326;-74
2023/07/05 05:48:53;;;;;;;20.25;11.07;;;22.80;90.00;;;;;;4983969;28;20555;-75
2023/07/05 05:51:42;;;;;;;19.65;11.18;;;22.90;90.10;;;;;;4987002;28;20605;-74
2023/07/05 05:54:33;;;;;;;21.33;12.43;;;22.90;89.90;;;;;;4984721;28;20304;-77
2023/07/05 05:57:22;;;;;;;19.45;12.02;;;23.00;90.30;;;;;;4974695;28;20219;-75
2023/07/05 06:00:13;;;;;;;20.80;12.32;;;22.90;90.30;;;;;;4971185;28;20265;-71
2023/07/05 06:03:02;;;;;;;20.77;11.65;;;22.60;90.40;;;;;;4983234;28;20219;-73
2023/07/05 06:05:55;;;;;;;20.35;11.40;;;22.90;90.40;;;;;;4984657;28;20250;-76
2023/07/05 06:08:44;;;;;;;18.33;11.50;;;22.80;89.20;;;;;;4993575;28;21073;-77
2023/07/05 06:11:33;;;;;;;14.75;11.80;;;22.90;90.00;;;;;;4985288;28;20226;-76
2023/07/05 06:14:22;;;;;;;18.83;11.65;;;23.00;89.30;;;;;;4976743;28;20309;-78
2023/07/05 06:17:11;;;;;;;19.30;11.50;;;22.80;88.60;;;;;;4978548;28;20216;-76
2023/07/05 06:20:00;;;;;;;16.08;11.70;;;22.90;89.40;;;;;;4976879;28;20223;-76
2023/07/05 06:22:50;;;;;;;19.83;11.57;;;23.20;88.70;;;;;;5000108;28;20219;-74
2023/07/05 06:25:39;;;;;;;22.08;11.93;;;23.40;89.80;;;;;;4993336;28;20226;-74
2023/07/05 06:28:28;;;;;;;20.55;12.00;;;23.40;87.70;;;;;;4991732;28;20229;-79
2023/07/05 06:31:18;;;;;;;20.45;11.20;;;23.30;88.50;;;;;;4981405;28;20237;-73
2023/07/05 06:34:07;;;;;;;15.00;11.23;;;23.60;89.20;;;;;;4972950;28;20395;-73
2023/07/05 06:36:55;;;;;;;22.83;12.02;;;23.80;88.00;;;;;;4984967;28;20659;-76
2023/07/05 06:39:46;;;;;;;23.83;11.73;;;24.60;85.90;;;;;;4981289;28;20231;-75
2023/07/05 06:42:34;;;;;;;20.00;11.38;;;26.70;83.70;;;;;;4991589;28;20229;-74
2023/07/05 06:45:28;;;;;;;15.57;10.93;;;26.50;80.30;;;;;;4974054;28;20233;-75
2023/07/05 06:48:18;;;;;;;16.48;11.07;;;25.90;79.50;;;;;;4989181;28;20348;-74
2023/07/05 06:51:09;;;;;;;17.38;11.93;;;25.60;80.80;;;;;;4976204;28;20825;-75
2023/07/05 06:53:58;;;;;;;13.95;11.02;;;25.60;82.30;;;;;;4983032;28;20587;-75
2023/07/05 06:56:48;;;;;;;15.52;11.30;;;25.60;81.30;;;;;;4989780;28;20238;-76
2023/07/05 06:59:38;;;;;;;21.67;10.90;;;25.30;82.50;;;;;;4973044;28;20694;-75
2023/07/05 07:02:27;;;;;;;21.75;11.50;;;24.70;81.60;;;;;;4980876;28;20226;-82
2023/07/05 07:05:16;;;;;;;16.25;10.57;;;24.40;82.60;;;;;;4976858;28;20230;-79
2023/07/05 07:08:05;;;;;;;13.38;10.80;;;24.80;83.40;;;;;;4986179;28;20219;-74
2023/07/05 07:10:54;;;;;;;18.73;10.95;;;24.90;81.90;;;;;;4972569;28;20222;-77
2023/07/05 07:13:44;;;;;;;17.90;11.30;;;25.20;83.40;;;;;;4995121;28;20225;-76
2023/07/05 07:16:34;;;;;;;19.23;11.55;;;25.60;82.60;;;;;;4976462;28;20250;-76
2023/07/05 07:19:23;;;;;;;16.40;11.73;;;25.40;81.20;;;;;;4991668;28;21338;-80
2023/07/05 07:22:15;;;;;;;18.85;11.30;;;25.50;81.20;;;;;;4979495;28;20242;-77
2023/07/05 07:25:04;;;;;;;18.95;11.90;;;25.70;79.80;;;;;;4976028;28;20226;-76
2023/07/05 07:27:53;;;;;;;16.70;11.77;;;25.70;78.60;;;;;;4991951;28;20317;-74
2023/07/05 07:30:44;;;;;;;17.25;11.55;;;26.20;79.20;;;;;;4991857;28;20752;-74
2023/07/05 07:33:33;;;;;;;20.52;11.25;;;26.70;79.70;;;;;;4982084;28;20226;-75
2023/07/05 07:36:23;;;;;;;17.60;12.40;;;27.10;78.60;;;;;;4978954;28;20233;-74
2023/07/05 07:39:15;;;;;;;18.63;12.82;;;27.20;76.40;;;;;;4992376;28;20222;-76
2023/07/05 07:42:04;;;;;;;19.35;12.13;;;27.30;74.10;;;;;;4974647;28;20745;-77
2023/07/05 07:44:55;;;;;;;20.35;12.27;;;27.40;74.10;;;;;;4978461;28;20295;-75
2023/07/05 07:47:45;;;;;;;17.63;12.90;;;28.00;74.60;;;;;;4988212;28;20226;-74
2023/07/05 07:50:34;;;;;;;19.35;12.90;;;28.40;74.40;;;;;;4970590;28;20262;-68
2023/07/05 07:53:23;;;;;;;21.10;13.52;;;28.50;72.20;;;;;;4987895;28;20250;-74
2023/07/05 07:56:13;;;;;;;30.23;14.23;;;28.90;69.90;;;;;;4976183;28;20222;-76
2023/07/05 07:59:06;;;;;;;21.88;13.05;;;28.90;70.00;;;;;;4979579;28;20337;-76
2023/07/05 08:01:55;;;;;;;18.85;13.35;;;29.20;69.50;;;;;;4990625;28;20232;-77
2023/07/05 08:04:47;;;;;;;20.88;13.70;;;29.60;68.40;;;;;;4992939;28;20215;-76
2023/07/05 08:07:37;;;;;;;19.58;13.35;;;29.60;66.10;;;;;;4974698;28;20411;-75
2023/07/05 08:10:29;;;;;;;17.83;13.27;;;29.90;66.60;;;;;;4971163;28;20218;-73
2023/07/05 08:13:18;;;;;;;17.75;13.30;;;29.90;66.50;;;;;;4987169;28;20317;-74
2023/07/05 08:16:08;;;;;;;15.15;12.85;;;29.60;65.00;;;;;;4980823;28;20226;-75
2023/07/05 08:18:58;;;;;;;23.90;13.98;;;30.00;65.40;;;;;;4986487;28;20827;-78
2023/07/05 08:21:48;;;;;;;20.38;13.40;;;30.30;65.10;;;;;;4978103;28;20231;-77
2023/07/05 08:24:38;;;;;;;17.95;13.40;;;30.80;64.00;;;;;;4981741;28;20221;-76
2023/07/05 08:27:27;;;;;;;17.95;13.25;;;31.00;62.50;;;;;;4992514;28;20421;-77
2023/07/05 08:30:17;;;;;;;15.25;13.60;;;31.10;64.10;;;;;;4981682;28;20222;-76
2023/07/05 08:33:07;;;;;;;19.17;13.32;;;31.20;63.80;;;;;;4979953;28;20225;-79
2023/07/05 08:36:10;;;;;;;29.00;14.02;;;31.50;60.40;;;;;;4978208;28;20229;-77
2023/07/05 08:39:02;;;;;;;15.15;13.20;;;31.30;62.20;;;;;;4981635;28;20578;-77
2023/07/05 08:42:28;;;;;;;20.48;13.55;;;31.40;59.90;;;;;;4985217;28;20357;-75
2023/07/05 08:45:23;;;;;;;23.30;13.57;;;31.40;62.60;;;;;;4980846;28;20800;-74
2023/07/05 08:48:16;;;;;;;22.65;13.82;;;31.80;60.50;;;;;;4983325;28;20297;-75
2023/07/05 08:51:05;;;;;;;16.92;14.02;;;31.70;59.70;;;;;;4981873;28;20218;-75
2023/07/05 08:54:04;;;;;;;15.50;13.73;;;31.80;59.00;;;;;;4980915;28;20230;-81
2023/07/05 08:57:02;;;;;;;17.83;13.45;;;31.70;58.20;;;;;;4980161;28;20234;-79
2023/07/05 08:59:56;;;;;;;18.00;14.02;;;32.10;59.40;;;;;;4977701;28;20287;-79
2023/07/05 09:02:45;;;;;;;23.83;14.35;;;32.20;59.00;;;;;;4982414;28;20226;-79
2023/07/05 09:05:40;;;;;;;17.20;13.20;;;32.00;58.50;;;;;;4976080;28;20245;-79
2023/07/05 09:08:40;;;;;;;16.33;14.63;;;32.20;58.00;;;;;;4982222;28;20309;-80
2023/07/05 09:11:43;;;;;;;18.25;15.32;;;32.50;56.90;;;;;;4971396;28;21006;-79
2023/07/05 09:14:41;;;;;;;23.73;14.93;;;33.00;56.50;;;;;;4979214;28;20239;-76
2023/07/05 09:17:39;;;;;;;22.75;16.10;;;33.30;56.10;;;;;;4972919;28;20227;-75
2023/07/05 09:20:50;;;;;;;18.38;16.15;;;33.30;55.70;;;;;;4975762;28;20218;-76
2023/07/05 09:23:45;;;;;;;23.85;15.68;;;33.60;55.70;;;;;;4961260;28;20718;-78
2023/07/05 09:26:38;;;;;;;18.67;14.63;;;33.80;55.90;;;;;;4988544;28;20226;-78
2023/07/05 09:29:31;;;;;;;17.67;15.55;;;33.80;55.70;;;;;;4978307;28;20242;-76
2023/07/05 09:32:25;;;;;;;18.10;15.93;;;33.40;55.80;;;;;;4991580;28;20794;-76
2023/07/05 09:35:19;;;;;;;23.85;16.02;;;33.40;55.80;;;;;;4984417;28;20536;-76
2023/07/05 09:38:13;;;;;;;17.73;15.77;;;33.80;54.90;;;;;;4993718;28;20620;-76
2023/07/05 09:41:07;;;;;;;17.33;15.48;;;33.80;55.40;;;;;;4988831;28;20230;-76
2023/07/05 09:43:58;;;;;;;18.00;15.63;;;34.10;54.00;;;;;;4990517;28;20479;-72
2023/07/05 09:46:47;;;;;;;18.25;16.35;;;34.40;54.60;;;;;;4992681;28;20309;-75
2023/07/05 09:49:36;;;;;;;17.33;15.48;;;35.20;54.60;;;;;;4976374;28;20218;-72
2023/07/05 09:52:27;;;;;;;18.95;14.70;;;34.90;53.90;;;;;;4981177;28;20222;-77
2023/07/05 09:55:17;;;;;;;18.15;14.77;;;36.10;54.10;;;;;;4977982;28;20785;-77
2023/07/05 09:58:16;;;;;;;16.95;15.18;;;37.40;53.40;;;;;;5006794;28;20598;-72
2023/07/05 10:01:12;;;;;;;16.92;15.15;;;37.30;52.70;;;;;;4974267;28;20305;-76
2023/07/05 10:04:05;;;;;;;16.30;14.18;;;37.00;53.10;;;;;;4972152;28;20223;-78
2023/07/05 10:06:55;;;;;;;19.35;15.18;;;38.20;52.60;;;;;;4963534;28;20215;-82
2023/07/05 10:10:01;;;;;;;16.17;14.50;;;37.00;50.80;;;;;;4971903;28;20246;-81
2023/07/05 10:12:58;;;;;;;18.65;14.15;;;37.90;52.80;;;;;;4990898;28;20238;-72
2023/07/05 10:15:49;;;;;;;16.50;14.30;;;38.80;49.40;;;;;;4973201;28;20880;-72
2023/07/05 10:18:41;;;;;;;24.15;14.98;;;40.00;51.30;;;;;;4970494;28;20223;-77
2023/07/05 10:21:30;;;;;;;16.40;14.57;;;39.40;48.60;;;;;;4981017;28;20321;-73
2023/07/05 10:24:21;;;;;;;17.30;15.07;;;38.30;49.60;;;;;;4983365;28;20233;-75
2023/07/05 10:27:22;;;;;;;16.63;14.93;;;38.50;50.00;;;;;;4979059;28;20308;-73
2023/07/05 10:30:18;;;;;;;16.00;14.50;;;40.00;49.80;;;;;;4973677;28;20762;-74
2023/07/05 10:33:16;;;;;;;16.08;14.48;;;39.80;48.00;;;;;;4979481;28;20237;-73
2023/07/05 10:36:19;;;;;;;16.95;14.70;;;40.20;47.50;;;;;;4976474;28;20238;-73
2023/07/05 10:39:11;;;;;;;16.35;14.25;;;37.20;50.50;;;;;;4976519;28;20230;-73
2023/07/05 10:42:01;;;;;;;16.88;15.13;;;36.20;51.20;;;;;;4975186;28;20245;-72
2023/07/05 10:44:50;;;;;;;18.67;15.65;;;34.80;51.40;;;;;;4974777;28;20230;-72
2023/07/05 10:47:40;;;;;;;20.65;15.80;;;35.60;53.60;;;;;;4985294;28;20304;-73
2023/07/05 10:50:32;;;;;;;16.75;14.52;;;35.20;53.10;;;;;;4982076;28;21106;-70
2023/07/05 10:53:26;;;;;;;16.33;13.75;;;38.30;51.20;;;;;;4974785;28;20241;-73
2023/07/05 10:56:22;;;;;;;16.42;14.73;;;37.60;52.60;;;;;;4985803;28;20230;-71
2023/07/05 10:59:27;;;;;;;19.52;14.70;;;40.20;49.20;;;;;;4978168;28;20281;-72
2023/07/05 11:02:36;;;;;;;18.20;14.05;;;41.60;48.10;;;;;;4978091;28;20815;-72
2023/07/05 11:05:29;;;;;;;16.45;14.20;;;37.10;49.80;;;;;;4978355;28;20221;-72
2023/07/05 11:08:27;;;;;;;15.18;13.18;;;39.30;49.80;;;;;;4979906;28;20316;-71
2023/07/05 11:11:21;;;;;;;14.68;12.48;;;41.20;47.80;;;;;;4976040;28;20222;-72
2023/07/05 11:14:12;;;;;;;16.50;12.82;;;42.00;43.80;;;;;;4975896;28;20266;-72
2023/07/05 11:17:02;;;;;;;17.30;12.02;;;38.30;47.00;;;;;;4978650;28;20737;-70
2023/07/05 11:19:51;;;;;;;17.60;12.48;;;40.50;45.90;;;;;;4979734;28;20297;-73
2023/07/05 11:22:43;;;;;;;14.27;12.30;;;41.90;44.50;;;;;;4973817;28;20682;-72
2023/07/05 11:26:00;;;;;;;13.10;11.77;;;38.30;45.40;;;;;;4979320;28;20781;-71
2023/07/05 11:28:49;;;;;;;12.90;11.48;;;36.60;47.30;;;;;;4959260;28;20949;-71
2023/07/05 11:31:59;;;;;;;26.17;13.57;;;39.80;46.40;;;;;;4983547;28;20226;-70
2023/07/05 11:34:50;;;;;;;19.42;12.43;;;42.00;45.90;;;;;;4973494;28;20354;-71
2023/07/05 11:37:43;;;;;;;23.40;13.93;;;42.20;45.40;;;;;;4967666;28;20229;-71
2023/07/05 11:41:01;;;;;;;15.68;12.82;;;40.50;45.80;;;;;;4984847;28;20268;-71
2023/07/05 11:43:56;;;;;;;30.27;13.63;;;41.50;46.20;;;;;;4976258;28;20336;-72
2023/07/05 11:46:48;;;;;;;15.52;11.95;;;44.80;44.70;;;;;;4974848;28;20222;-72
2023/07/05 11:49:40;;;;;;;22.23;12.82;;;46.40;42.70;;;;;;4985407;28;20261;-69
2023/07/05 11:52:30;;;;;;;13.18;11.88;;;48.30;41.50;;;;;;4972185;28;20218;-72
2023/07/05 11:55:23;;;;;;;15.45;12.05;;;45.50;41.30;;;;;;4981795;28;20237;-71
2023/07/05 11:58:19;;;;;;;15.02;12.38;;;46.60;40.90;;;;;;4984882;28;20674;-71
2023/07/05 12:01:16;;;;;;;11.45;10.18;;;47.70;39.80;;;;;;4984199;28;20227;-77
2023/07/05 12:04:11;;;;;;;17.88;12.02;;;47.90;39.30;;;;;;4983326;28;20230;-77
2023/07/05 12:07:03;;;;;;;15.00;10.68;;;49.20;38.50;;;;;;4981766;28;20229;-76
2023/07/05 12:09:56;;;;;;;13.55;11.10;;;48.10;37.70;;;;;;4986549;28;20279;-77
2023/07/05 12:12:45;;;;;;;14.35;12.10;;;46.40;38.40;;;;;;4978822;28;20601;-76
2023/07/05 12:15:38;;;;;;;18.15;13.68;;;40.50;41.90;;;;;;5001766;28;20424;-77
2023/07/05 12:18:31;;;;;;;13.70;12.23;;;38.60;45.70;;;;;;4988768;28;20713;-77
2023/07/05 12:21:20;;;;;;;25.35;13.43;;;42.10;44.70;;;;;;4995608;28;20741;-73
2023/07/05 12:24:12;;;;;;;17.33;12.13;;;45.80;41.40;;;;;;4996921;28;20309;-74
2023/07/05 12:27:03;;;;;;;13.13;11.77;;;46.80;39.70;;;;;;4989333;28;20246;-71
2023/07/05 12:29:53;;;;;;;17.48;12.10;;;48.90;37.90;;;;;;4978442;28;20222;-74
2023/07/05 12:32:49;;;;;;;13.25;11.57;;;46.00;37.10;;;;;;4989805;28;20218;-72
2023/07/05 12:35:38;;;;;;;13.90;11.60;;;43.80;40.40;;;;;;4979329;28;20281;-74
2023/07/05 12:38:26;;;;;;;13.43;11.48;;;39.30;42.80;;;;;;4981262;28;20265;-74
2023/07/05 12:41:18;;;;;;;13.35;11.88;;;36.70;45.80;;;;;;4987483;28;20222;-74
2023/07/05 12:44:14;;;;;;;18.60;12.77;;;37.50;47.00;;;;;;4983823;28;20234;-75
2023/07/05 12:47:13;;;;;;;16.92;13.55;;;36.20;46.80;;;;;;4988191;28;20627;-72
2023/07/05 12:50:07;;;;;;;14.70;12.57;;;35.90;48.00;;;;;;4986827;28;20337;-76
2023/07/05 12:53:04;;;;;;;18.50;13.90;;;39.00;48.00;;;;;;4981975;28;20276;-75
2023/07/05 12:55:59;;;;;;;21.63;14.90;;;37.30;46.90;;;;;;4986080;28;20210;-74
2023/07/05 12:58:53;;;;;;;23.95;14.20;;;35.40;48.50;;;;;;4978155;28;20226;-74
2023/07/05 13:01:45;;;;;;;21.67;14.65;;;34.90;49.50;;;;;;4982125;28;20230;-74
2023/07/05 13:04:37;;;;;;;13.98;12.40;;;33.90;51.20;;;;;;4985773;28;20541;-70
2023/07/05 13:07:28;;;;;;;18.70;13.73;;;33.30;51.30;;;;;;5006725;28;20648;-71
2023/07/05 13:10:17;;;;;;;16.42;13.30;;;33.20;52.00;;;;;;4996863;28;20226;-71
2023/07/05 13:13:27;;;;;;;15.02;13.15;;;32.90;53.00;;;;;;4984174;28;20228;-70
2023/07/05 13:16:22;;;;;;;18.85;13.13;;;31.90;52.60;;;;;;4989245;28;20340;-71
2023/07/05 13:19:12;;;;;;;14.30;12.68;;;31.70;53.40;;;;;;4993110;28;20234;-70
2023/07/05 13:22:21;;;;;;;14.02;12.38;;;31.50;53.70;;;;;;4983033;28;20223;-76
2023/07/05 13:25:30;;;;;;;14.82;12.70;;;31.20;54.80;;;;;;4986146;28;20757;-76
2023/07/05 13:28:21;;;;;;;14.43;12.90;;;31.30;54.20;;;;;;4984619;28;20534;-76
2023/07/05 13:31:19;;;;;;;18.92;14.20;;;31.00;54.40;;;;;;4965585;28;20226;-74
2023/07/05 13:34:09;;;;;;;17.65;13.43;;;30.90;54.70;;;;;;4982738;28;20939;-73
2023/07/05 13:37:02;;;;;;;19.02;12.70;;;30.70;55.50;;;;;;4988698;28;20264;-74
2023/07/05 13:39:51;;;;;;;15.75;12.27;;;30.80;55.10;;;;;;4995661;28;20226;-76
2023/07/05 13:42:42;;;;;;;15.90;11.98;;;30.90;55.50;;;;;;4980355;28;20234;-73
2023/07/05 13:45:32;;;;;;;15.50;12.05;;;30.70;55.20;;;;;;4983637;28;20214;-73
2023/07/05 13:48:21;;;;;;;14.32;11.75;;;30.50;55.30;;;;;;4979672;28;21108;-74
2023/07/05 13:51:22;;;;;;;20.27;14.20;;;30.50;56.10;;;;;;4981905;28;20734;-73
2023/07/05 13:54:13;;;;;;;16.35;12.95;;;30.50;57.80;;;;;;4976313;28;20236;-72
2023/07/05 13:57:02;;;;;;;14.45;12.38;;;30.60;57.00;;;;;;4976634;28;20219;-75
2023/07/05 13:59:52;;;;;;;15.48;11.65;;;30.50;56.90;;;;;;4977763;28;20230;-75
2023/07/05 14:02:41;;;;;;;14.05;12.57;;;30.60;56.50;;;;;;4971530;28;20307;-77
2023/07/05 14:05:31;;;;;;;19.33;12.45;;;30.40;56.60;;;;;;4984749;28;20750;-78
2023/07/05 14:08:21;;;;;;;15.20;11.50;;;30.30;58.40;;;;;;4973671;28;20241;-76
2023/07/05 14:11:16;;;;;;;12.55;11.18;;;30.30;57.30;;;;;;4977575;28;20222;-76
2023/07/05 14:14:05;;;;;;;16.90;12.20;;;30.10;57.40;;;;;;4980866;28;20312;-74
2023/07/05 14:16:56;;;;;;;13.20;10.75;;;30.10;57.60;;;;;;4977833;28;20222;-74
2023/07/05 14:19:45;;;;;;;13.10;11.07;;;30.30;57.70;;;;;;4973167;28;20226;-75
2023/07/05 14:22:34;;;;;;;15.43;11.13;;;30.20;57.60;;;;;;4977299;28;20222;-75
2023/07/05 14:25:23;;;;;;;16.23;11.10;;;30.30;57.70;;;;;;4978355;28;20229;-75
2023/07/05 14:28:12;;;;;;;20.13;12.23;;;30.30;58.40;;;;;;4981713;28;20236;-74
2023/07/05 14:31:02;;;;;;;17.85;11.68;;;30.20;57.80;;;;;;4973392;28;20214;-74
2023/07/05 14:33:52;;;;;;;18.45;11.50;;;30.20;59.10;;;;;;4980512;28;20654;-74